sensor_id;sensor_type;location;lat;lon;timestamp;pressure;altitude;pressure_sealevel;temperature;humidity
64115;BME280;62188;35.640;139.748;2023-08-01T00:00:07;101306.12;;;29.83;48.81
64115;BME280;62188;35.640;139.748;2023-08-01T00:02:31;101304.78;;;29.75;47.78
64115;BME280;62188;35.640;139.748;2023-08-01T00:04:56;101307.99;;;29.84;47.35
64115;BME280;62188;35.640;139.748;2023-08-01T00:07:21;101317.86;;;29.89;47.05
64115;BME280;62188;35.640;139.748;2023-08-01T00:09:46;101322.64;;;29.87;47.27
64115;BME280;62188;35.640;139.748;2023-08-01T00:12:12;101312.49;;;29.94;47.59
64115;BME280;62188;35.640;139.748;2023-08-01T00:14:38;101304.48;;;29.87;47.44
64115;BME280;62188;35.640;139.748;2023-08-01T00:17:03;101309.63;;;29.96;48.06
64115;BME280;62188;35.640;139.748;2023-08-01T00:19:28;101310.45;;;29.75;47.90
64115;BME280;62188;35.640;139.748;2023-08-01T00:21:53;101309.41;;;29.77;48.06
64115;BME280;62188;35.640;139.748;2023-08-01T00:24:18;101306.19;;;30.08;47.62
64115;BME280;62188;35.640;139.748;2023-08-01T00:26:43;101304.90;;;29.84;48.55
64115;BME280;62188;35.640;139.748;2023-08-01T00:29:09;101306.37;;;29.90;47.92
64115;BME280;62188;35.640;139.748;2023-08-01T00:31:34;101303.65;;;30.02;47.93
64115;BME280;62188;35.640;139.748;2023-08-01T00:33:59;101303.36;;;30.32;47.66
64115;BME280;62188;35.640;139.748;2023-08-01T00:36:24;101301.17;;;30.21;47.14
64115;BME280;62188;35.640;139.748;2023-08-01T00:38:50;101303.68;;;29.53;47.79
64115;BME280;62188;35.640;139.748;2023-08-01T00:41:15;101302.50;;;29.87;47.29
64115;BME280;62188;35.640;139.748;2023-08-01T00:43:40;101301.20;;;30.14;47.19
64115;BME280;62188;35.640;139.748;2023-08-01T00:46:07;101306.26;;;29.83;48.28
64115;BME280;62188;35.640;139.748;2023-08-01T00:48:31;101307.04;;;30.07;48.28
64115;BME280;62188;35.640;139.748;2023-08-01T00:50:57;101310.18;;;30.00;48.20
64115;BME280;62188;35.640;139.748;2023-08-01T00:53:21;101318.41;;;29.43;49.20
64115;BME280;62188;35.640;139.748;2023-08-01T00:55:47;101320.43;;;29.08;49.95
64115;BME280;62188;35.640;139.748;2023-08-01T00:58:12;101321.64;;;29.53;49.37
64115;BME280;62188;35.640;139.748;2023-08-01T01:00:38;101322.66;;;29.63;49.57
64115;BME280;62188;35.640;139.748;2023-08-01T01:03:03;101322.49;;;29.96;49.40
64115;BME280;62188;35.640;139.748;2023-08-01T01:05:30;101322.76;;;30.08;49.27
64115;BME280;62188;35.640;139.748;2023-08-01T01:07:54;101319.04;;;30.55;49.01
64115;BME280;62188;35.640;139.748;2023-08-01T01:10:19;101315.20;;;30.73;47.82
64115;BME280;62188;35.640;139.748;2023-08-01T01:12:43;101316.35;;;30.57;47.78
64115;BME280;62188;35.640;139.748;2023-08-01T01:15:10;101316.40;;;30.25;48.48
64115;BME280;62188;35.640;139.748;2023-08-01T01:17:34;101314.88;;;30.24;48.83
64115;BME280;62188;35.640;139.748;2023-08-01T01:20:00;101315.64;;;30.28;48.93
64115;BME280;62188;35.640;139.748;2023-08-01T01:22:25;101318.72;;;29.77;49.80
64115;BME280;62188;35.640;139.748;2023-08-01T01:24:50;101316.96;;;30.21;49.62
64115;BME280;62188;35.640;139.748;2023-08-01T01:27:17;101315.33;;;29.94;48.65
64115;BME280;62188;35.640;139.748;2023-08-01T01:29:41;101313.84;;;30.44;48.12
64115;BME280;62188;35.640;139.748;2023-08-01T01:32:08;101308.48;;;30.61;47.54
64115;BME280;62188;35.640;139.748;2023-08-01T01:34:32;101302.82;;;30.99;46.99
64115;BME280;62188;35.640;139.748;2023-08-01T01:36:57;101294.47;;;30.54;46.69
64115;BME280;62188;35.640;139.748;2023-08-01T01:39:21;101296.19;;;30.64;46.61
64115;BME280;62188;35.640;139.748;2023-08-01T01:41:47;101306.79;;;31.09;47.40
64115;BME280;62188;35.640;139.748;2023-08-01T01:44:12;101301.40;;;30.77;48.50
64115;BME280;62188;35.640;139.748;2023-08-01T01:46:37;101296.30;;;30.67;48.22
64115;BME280;62188;35.640;139.748;2023-08-01T01:49:03;101297.25;;;30.82;47.73
64115;BME280;62188;35.640;139.748;2023-08-01T01:51:29;101298.46;;;30.56;48.02
64115;BME280;62188;35.640;139.748;2023-08-01T01:53:54;101294.06;;;30.27;48.97
64115;BME280;62188;35.640;139.748;2023-08-01T01:56:19;101298.30;;;30.75;48.71
64115;BME280;62188;35.640;139.748;2023-08-01T01:58:44;101298.33;;;30.21;49.66
64115;BME280;62188;35.640;139.748;2023-08-01T02:01:10;101296.06;;;30.28;50.12
64115;BME280;62188;35.640;139.748;2023-08-01T02:03:35;101298.88;;;30.64;49.61
64115;BME280;62188;35.640;139.748;2023-08-01T02:06:02;101294.91;;;30.56;48.73
64115;BME280;62188;35.640;139.748;2023-08-01T02:08:25;101291.27;;;29.95;50.07
64115;BME280;62188;35.640;139.748;2023-08-01T02:10:50;101289.49;;;30.12;49.84
64115;BME280;62188;35.640;139.748;2023-08-01T02:13:16;101292.45;;;29.44;50.59
64115;BME280;62188;35.640;139.748;2023-08-01T02:15:41;101290.15;;;30.15;49.65
64115;BME280;62188;35.640;139.748;2023-08-01T02:18:07;101288.78;;;30.34;49.77
64115;BME280;62188;35.640;139.748;2023-08-01T02:20:32;101288.05;;;30.23;49.22
64115;BME280;62188;35.640;139.748;2023-08-01T02:22:58;101284.39;;;30.68;49.15
64115;BME280;62188;35.640;139.748;2023-08-01T02:25:22;101278.16;;;30.99;47.75
64115;BME280;62188;35.640;139.748;2023-08-01T02:27:47;101280.43;;;30.95;47.40
64115;BME280;62188;35.640;139.748;2023-08-01T02:30:13;101276.30;;;31.17;47.01
64115;BME280;62188;35.640;139.748;2023-08-01T02:32:38;101278.04;;;31.21;47.07
64115;BME280;62188;35.640;139.748;2023-08-01T02:35:04;101270.99;;;31.46;46.83
64115;BME280;62188;35.640;139.748;2023-08-01T02:37:28;101263.51;;;31.01;47.55
64115;BME280;62188;35.640;139.748;2023-08-01T02:39:53;101262.76;;;30.53;48.30
64115;BME280;62188;35.640;139.748;2023-08-01T02:42:19;101264.80;;;30.70;48.96
64115;BME280;62188;35.640;139.748;2023-08-01T02:44:44;101265.57;;;31.03;48.21
64115;BME280;62188;35.640;139.748;2023-08-01T02:47:09;101271.07;;;30.85;48.65
64115;BME280;62188;35.640;139.748;2023-08-01T02:49:34;101256.64;;;30.50;48.87
64115;BME280;62188;35.640;139.748;2023-08-01T02:52:00;101251.68;;;30.63;49.12
64115;BME280;62188;35.640;139.748;2023-08-01T02:54:25;101245.44;;;30.50;49.97
64115;BME280;62188;35.640;139.748;2023-08-01T02:56:50;101248.76;;;30.82;49.62
64115;BME280;62188;35.640;139.748;2023-08-01T02:59:17;101242.22;;;31.05;48.82
64115;BME280;62188;35.640;139.748;2023-08-01T03:01:41;101246.95;;;30.92;47.52
64115;BME280;62188;35.640;139.748;2023-08-01T03:04:11;101262.26;;;29.85;45.18
64115;BME280;62188;35.640;139.748;2023-08-01T03:06:32;101257.35;;;29.74;42.48
64115;BME280;62188;35.640;139.748;2023-08-01T03:08:57;101272.50;;;29.68;42.39
64115;BME280;62188;35.640;139.748;2023-08-01T03:11:24;101275.68;;;29.41;42.45
64115;BME280;62188;35.640;139.748;2023-08-01T03:13:48;101262.04;;;29.77;42.13
64115;BME280;62188;35.640;139.748;2023-08-01T03:16:12;101257.82;;;29.82;41.60
64115;BME280;62188;35.640;139.748;2023-08-01T03:18:37;101255.10;;;29.58;41.33
64115;BME280;62188;35.640;139.748;2023-08-01T03:21:03;101233.03;;;29.66;41.25
64115;BME280;62188;35.640;139.748;2023-08-01T03:23:30;101224.73;;;29.46;40.79
64115;BME280;62188;35.640;139.748;2023-08-01T03:25:54;101233.87;;;29.25;41.27
64115;BME280;62188;35.640;139.748;2023-08-01T03:28:19;101241.85;;;28.98;41.68
64115;BME280;62188;35.640;139.748;2023-08-01T03:30:44;101244.13;;;29.12;41.63
64115;BME280;62188;35.640;139.748;2023-08-01T03:33:09;101251.42;;;29.68;41.50
64115;BME280;62188;35.640;139.748;2023-08-01T03:35:35;101250.15;;;29.33;41.39
64115;BME280;62188;35.640;139.748;2023-08-01T03:38:00;101267.88;;;29.01;41.33
64115;BME280;62188;35.640;139.748;2023-08-01T03:40:26;101287.30;;;29.30;42.66
64115;BME280;62188;35.640;139.748;2023-08-01T03:42:50;101314.92;;;28.79;44.40
64115;BME280;62188;35.640;139.748;2023-08-01T03:45:15;101326.58;;;28.67;45.26
64115;BME280;62188;35.640;139.748;2023-08-01T03:47:41;101326.62;;;27.81;48.10
64115;BME280;62188;35.640;139.748;2023-08-01T03:50:08;101330.89;;;27.95;48.63
64115;BME280;62188;35.640;139.748;2023-08-01T03:52:36;101356.11;;;28.07;49.11
64115;BME280;62188;35.640;139.748;2023-08-01T03:54:57;101366.11;;;28.25;50.04
64115;BME280;62188;35.640;139.748;2023-08-01T03:57:22;101383.59;;;27.78;51.59
64115;BME280;62188;35.640;139.748;2023-08-01T03:59:48;101419.14;;;27.65;51.42
64115;BME280;62188;35.640;139.748;2023-08-01T04:02:12;101440.08;;;27.02;50.43
64115;BME280;62188;35.640;139.748;2023-08-01T04:04:38;101412.38;;;26.64;47.42
64115;BME280;62188;35.640;139.748;2023-08-01T04:07:08;101313.12;;;26.86;48.36
64115;BME280;62188;35.640;139.748;2023-08-01T04:09:28;101223.07;;;26.72;48.13
64115;BME280;62188;35.640;139.748;2023-08-01T04:11:55;101163.30;;;26.46;45.44
64115;BME280;62188;35.640;139.748;2023-08-01T04:14:19;101178.34;;;25.41;48.20
64115;BME280;62188;35.640;139.748;2023-08-01T04:16:45;101175.87;;;25.94;48.71
64115;BME280;62188;35.640;139.748;2023-08-01T04:19:11;101175.03;;;25.90;48.19
64115;BME280;62188;35.640;139.748;2023-08-01T04:21:36;101153.74;;;25.47;46.79
64115;BME280;62188;35.640;139.748;2023-08-01T04:24:01;101127.52;;;26.13;44.74
64115;BME280;62188;35.640;139.748;2023-08-01T04:26:26;101110.00;;;25.93;43.77
64115;BME280;62188;35.640;139.748;2023-08-01T04:28:52;101109.36;;;25.66;43.04
64115;BME280;62188;35.640;139.748;2023-08-01T04:31:17;101113.82;;;24.65;46.41
64115;BME280;62188;35.640;139.748;2023-08-01T04:33:42;101104.85;;;25.07;48.96
64115;BME280;62188;35.640;139.748;2023-08-01T04:36:08;101099.96;;;25.45;48.02
64115;BME280;62188;35.640;139.748;2023-08-01T04:38:33;101092.47;;;25.37;46.29
64115;BME280;62188;35.640;139.748;2023-08-01T04:40:58;101098.63;;;25.93;44.98
64115;BME280;62188;35.640;139.748;2023-08-01T04:43:23;101107.19;;;26.14;43.72
64115;BME280;62188;35.640;139.748;2023-08-01T04:45:50;101122.15;;;26.66;43.32
64115;BME280;62188;35.640;139.748;2023-08-01T04:48:14;101146.80;;;26.83;43.51
64115;BME280;62188;35.640;139.748;2023-08-01T04:50:39;101146.54;;;27.11;42.33
64115;BME280;62188;35.640;139.748;2023-08-01T04:53:04;101156.75;;;27.55;42.87
64115;BME280;62188;35.640;139.748;2023-08-01T04:55:30;101177.50;;;27.47;42.73
64115;BME280;62188;35.640;139.748;2023-08-01T04:57:55;101196.95;;;27.13;42.88
64115;BME280;62188;35.640;139.748;2023-08-01T05:00:20;101215.56;;;27.72;42.90
64115;BME280;62188;35.640;139.748;2023-08-01T05:02:45;101227.94;;;27.40;42.01
64115;BME280;62188;35.640;139.748;2023-08-01T05:05:10;101240.51;;;27.16;43.89
64115;BME280;62188;35.640;139.748;2023-08-01T05:07:36;101251.84;;;27.27;44.57
64115;BME280;62188;35.640;139.748;2023-08-01T05:10:02;101269.92;;;26.96;46.99
64115;BME280;62188;35.640;139.748;2023-08-01T05:12:26;101271.24;;;26.08;50.11
64115;BME280;62188;35.640;139.748;2023-08-01T05:14:51;101254.08;;;26.07;50.92
64115;BME280;62188;35.640;139.748;2023-08-01T05:17:19;101270.51;;;25.87;52.10
64115;BME280;62188;35.640;139.748;2023-08-01T05:19:43;101284.03;;;26.09;51.91
64115;BME280;62188;35.640;139.748;2023-08-01T05:22:12;101290.32;;;25.59;53.22
64115;BME280;62188;35.640;139.748;2023-08-01T05:24:33;101273.84;;;26.30;52.59
64115;BME280;62188;35.640;139.748;2023-08-01T05:26:58;101256.25;;;25.87;52.92
64115;BME280;62188;35.640;139.748;2023-08-01T05:29:23;101247.46;;;26.22;52.57
64115;BME280;62188;35.640;139.748;2023-08-01T05:31:54;101238.72;;;26.36;52.25
64115;BME280;62188;35.640;139.748;2023-08-01T05:34:14;101240.65;;;25.89;52.95
64115;BME280;62188;35.640;139.748;2023-08-01T05:36:39;101238.81;;;25.54;54.17
64115;BME280;62188;35.640;139.748;2023-08-01T05:39:05;101212.38;;;25.66;54.31
64115;BME280;62188;35.640;139.748;2023-08-01T05:41:30;101186.36;;;25.66;54.71
64115;BME280;62188;35.640;139.748;2023-08-01T05:43:55;101182.36;;;26.41;53.89
64115;BME280;62188;35.640;139.748;2023-08-01T05:46:20;101179.35;;;25.51;55.33
64115;BME280;62188;35.640;139.748;2023-08-01T05:48:46;101160.28;;;25.44;55.38
64115;BME280;62188;35.640;139.748;2023-08-01T05:51:11;101164.71;;;25.64;54.98
64115;BME280;62188;35.640;139.748;2023-08-01T05:53:36;101179.47;;;25.60;54.63
64115;BME280;62188;35.640;139.748;2023-08-01T05:56:01;101185.82;;;25.87;54.79
64115;BME280;62188;35.640;139.748;2023-08-01T05:58:26;101186.53;;;25.91;54.39
64115;BME280;62188;35.640;139.748;2023-08-01T06:00:53;101193.63;;;26.09;54.45
64115;BME280;62188;35.640;139.748;2023-08-01T06:03:18;101188.31;;;25.07;54.57
64115;BME280;62188;35.640;139.748;2023-08-01T06:05:44;101174.10;;;25.41;54.79
64115;BME280;62188;35.640;139.748;2023-08-01T06:08:09;101179.04;;;25.90;53.88
64115;BME280;62188;35.640;139.748;2023-08-01T06:10:34;101189.98;;;25.83;54.13
64115;BME280;62188;35.640;139.748;2023-08-01T06:12:59;101191.37;;;26.01;53.17
64115;BME280;62188;35.640;139.748;2023-08-01T06:15:25;101189.24;;;26.19;53.24
64115;BME280;62188;35.640;139.748;2023-08-01T06:17:50;101178.46;;;26.46;52.50
64115;BME280;62188;35.640;139.748;2023-08-01T06:20:15;101150.67;;;26.63;51.60
64115;BME280;62188;35.640;139.748;2023-08-01T06:22:40;101147.70;;;26.43;51.72
64115;BME280;62188;35.640;139.748;2023-08-01T06:25:06;101155.46;;;26.70;51.42
64115;BME280;62188;35.640;139.748;2023-08-01T06:27:31;101153.12;;;26.63;51.53
64115;BME280;62188;35.640;139.748;2023-08-01T06:29:56;101145.55;;;26.68;51.12
64115;BME280;62188;35.640;139.748;2023-08-01T06:32:21;101154.44;;;26.68;51.21
64115;BME280;62188;35.640;139.748;2023-08-01T06:34:48;101153.29;;;26.37;50.87
64115;BME280;62188;35.640;139.748;2023-08-01T06:37:12;101150.73;;;26.10;51.87
64115;BME280;62188;35.640;139.748;2023-08-01T06:39:38;101146.92;;;26.48;51.33
64115;BME280;62188;35.640;139.748;2023-08-01T06:42:04;101139.24;;;26.97;51.07
64115;BME280;62188;35.640;139.748;2023-08-01T06:44:27;101139.98;;;26.81;50.68
64115;BME280;62188;35.640;139.748;2023-08-01T06:46:53;101143.93;;;27.33;50.21
64115;BME280;62188;35.640;139.748;2023-08-01T06:49:18;101130.00;;;27.35;49.73
64115;BME280;62188;35.640;139.748;2023-08-01T06:51:43;101123.00;;;27.50;48.97
64115;BME280;62188;35.640;139.748;2023-08-01T06:54:10;101124.03;;;27.38;47.36
64115;BME280;62188;35.640;139.748;2023-08-01T06:56:34;101115.87;;;27.54;47.55
64115;BME280;62188;35.640;139.748;2023-08-01T06:58:59;101107.82;;;27.74;47.55
64115;BME280;62188;35.640;139.748;2023-08-01T07:01:24;101107.23;;;27.89;47.32
64115;BME280;62188;35.640;139.748;2023-08-01T07:03:50;101115.79;;;27.79;47.42
64115;BME280;62188;35.640;139.748;2023-08-01T07:06:15;101116.96;;;28.11;47.46
64115;BME280;62188;35.640;139.748;2023-08-01T07:08:40;101128.05;;;27.86;47.15
64115;BME280;62188;35.640;139.748;2023-08-01T07:11:06;101127.83;;;27.52;46.30
64115;BME280;62188;35.640;139.748;2023-08-01T07:13:31;101119.49;;;27.74;46.32
64115;BME280;62188;35.640;139.748;2023-08-01T07:16:00;101115.87;;;27.46;46.60
64115;BME280;62188;35.640;139.748;2023-08-01T07:18:22;101119.66;;;27.95;46.94
64115;BME280;62188;35.640;139.748;2023-08-01T07:20:47;101126.21;;;27.75;47.16
64115;BME280;62188;35.640;139.748;2023-08-01T07:23:12;101119.43;;;28.00;47.13
64115;BME280;62188;35.640;139.748;2023-08-01T07:25:37;101107.86;;;28.11;47.22
64115;BME280;62188;35.640;139.748;2023-08-01T07:28:02;101097.52;;;27.69;47.47
64115;BME280;62188;35.640;139.748;2023-08-01T07:30:28;101097.48;;;28.04;47.59
64115;BME280;62188;35.640;139.748;2023-08-01T07:32:53;101106.20;;;27.82;47.44
64115;BME280;62188;35.640;139.748;2023-08-01T07:35:18;101119.64;;;27.91;47.41
64115;BME280;62188;35.640;139.748;2023-08-01T07:37:43;101137.48;;;27.65;47.56
64115;BME280;62188;35.640;139.748;2023-08-01T07:40:10;101135.96;;;27.83;46.87
64115;BME280;62188;35.640;139.748;2023-08-01T07:42:34;101114.41;;;27.85;47.15
64115;BME280;62188;35.640;139.748;2023-08-01T07:45:00;101126.05;;;27.97;47.15
64115;BME280;62188;35.640;139.748;2023-08-01T07:47:24;101122.66;;;28.23;47.05
64115;BME280;62188;35.640;139.748;2023-08-01T07:49:50;101131.77;;;28.12;46.38
64115;BME280;62188;35.640;139.748;2023-08-01T07:52:15;101121.35;;;28.21;46.17
64115;BME280;62188;35.640;139.748;2023-08-01T07:54:40;101117.01;;;28.29;46.03
64115;BME280;62188;35.640;139.748;2023-08-01T07:57:06;101130.06;;;28.34;46.13
64115;BME280;62188;35.640;139.748;2023-08-01T07:59:37;101143.43;;;28.43;45.83
64115;BME280;62188;35.640;139.748;2023-08-01T08:01:56;101157.13;;;28.45;45.55
64115;BME280;62188;35.640;139.748;2023-08-01T08:04:21;101169.74;;;28.48;44.88
64115;BME280;62188;35.640;139.748;2023-08-01T08:06:46;101186.84;;;28.48;45.06
64115;BME280;62188;35.640;139.748;2023-08-01T08:09:14;101198.28;;;28.01;45.14
64115;BME280;62188;35.640;139.748;2023-08-01T08:11:45;101200.44;;;28.41;45.09
64115;BME280;62188;35.640;139.748;2023-08-01T08:14:03;101200.17;;;28.22;45.05
64115;BME280;62188;35.640;139.748;2023-08-01T08:16:27;101214.89;;;28.12;46.34
64115;BME280;62188;35.640;139.748;2023-08-01T08:18:53;101232.63;;;27.69;46.41
64115;BME280;62188;35.640;139.748;2023-08-01T08:21:18;101246.81;;;28.19;46.02
64115;BME280;62188;35.640;139.748;2023-08-01T08:23:43;101264.98;;;28.14;45.97
64115;BME280;62188;35.640;139.748;2023-08-01T08:26:09;101279.56;;;28.05;45.73
64115;BME280;62188;35.640;139.748;2023-08-01T08:28:35;101285.16;;;28.04;45.62
64115;BME280;62188;35.640;139.748;2023-08-01T08:30:59;101286.35;;;27.52;46.45
64115;BME280;62188;35.640;139.748;2023-08-01T08:33:25;101297.77;;;27.72;46.94
64115;BME280;62188;35.640;139.748;2023-08-01T08:35:51;101308.91;;;27.05;47.14
64115;BME280;62188;35.640;139.748;2023-08-01T08:38:16;101312.62;;;27.55;46.98
64115;BME280;62188;35.640;139.748;2023-08-01T08:40:43;101309.40;;;27.67;46.56
64115;BME280;62188;35.640;139.748;2023-08-01T08:43:07;101310.30;;;27.59;46.94
64115;BME280;62188;35.640;139.748;2023-08-01T08:45:35;101311.65;;;27.77;46.65
64115;BME280;62188;35.640;139.748;2023-08-01T08:48:01;101302.00;;;27.93;46.82
64115;BME280;62188;35.640;139.748;2023-08-01T08:50:22;101291.10;;;28.26;46.21
64115;BME280;62188;35.640;139.748;2023-08-01T08:52:47;101283.67;;;27.86;46.20
64115;BME280;62188;35.640;139.748;2023-08-01T08:55:12;101275.88;;;28.10;46.03
64115;BME280;62188;35.640;139.748;2023-08-01T08:57:38;101272.76;;;27.67;46.08
64115;BME280;62188;35.640;139.748;2023-08-01T09:00:05;101270.99;;;27.63;46.16
64115;BME280;62188;35.640;139.748;2023-08-01T09:02:28;101265.78;;;27.70;46.19
64115;BME280;62188;35.640;139.748;2023-08-01T09:04:53;101259.42;;;27.50;45.69
64115;BME280;62188;35.640;139.748;2023-08-01T09:07:22;101251.45;;;27.45;45.57
64115;BME280;62188;35.640;139.748;2023-08-01T09:09:44;101248.65;;;27.55;45.50
64115;BME280;62188;35.640;139.748;2023-08-01T09:12:10;101244.50;;;27.31;45.84
64115;BME280;62188;35.640;139.748;2023-08-01T09:14:34;101245.67;;;27.19;45.36
64115;BME280;62188;35.640;139.748;2023-08-01T09:17:07;101240.28;;;27.05;45.34
64115;BME280;62188;35.640;139.748;2023-08-01T09:19:26;101246.52;;;27.06;45.69
64115;BME280;62188;35.640;139.748;2023-08-01T09:21:51;101254.80;;;26.56;46.31
64115;BME280;62188;35.640;139.748;2023-08-01T09:24:17;101259.66;;;26.83;46.15
64115;BME280;62188;35.640;139.748;2023-08-01T09:26:42;101268.72;;;26.71;46.53
64115;BME280;62188;35.640;139.748;2023-08-01T09:29:06;101280.30;;;27.10;46.47
64115;BME280;62188;35.640;139.748;2023-08-01T09:31:33;101294.04;;;26.19;48.28
64115;BME280;62188;35.640;139.748;2023-08-01T09:33:57;101295.81;;;26.28;48.96
64115;BME280;62188;35.640;139.748;2023-08-01T09:36:23;101293.76;;;26.47;48.92
64115;BME280;62188;35.640;139.748;2023-08-01T09:38:47;101294.08;;;26.34;48.85
64115;BME280;62188;35.640;139.748;2023-08-01T09:41:17;101286.18;;;26.35;49.25
64115;BME280;62188;35.640;139.748;2023-08-01T09:43:38;101291.68;;;26.61;48.70
64115;BME280;62188;35.640;139.748;2023-08-01T09:46:06;101287.77;;;26.73;48.73
64115;BME280;62188;35.640;139.748;2023-08-01T09:48:29;101281.64;;;26.89;47.99
64115;BME280;62188;35.640;139.748;2023-08-01T09:51:05;101277.95;;;27.41;47.57
64115;BME280;62188;35.640;139.748;2023-08-01T09:53:19;101282.30;;;27.20;46.87
64115;BME280;62188;35.640;139.748;2023-08-01T09:55:45;101285.24;;;27.25;47.21
64115;BME280;62188;35.640;139.748;2023-08-01T09:58:10;101286.49;;;27.52;47.25
64115;BME280;62188;35.640;139.748;2023-08-01T10:00:35;101282.28;;;27.41;46.40
64115;BME280;62188;35.640;139.748;2023-08-01T10:03:01;101283.07;;;27.57;45.80
64115;BME280;62188;35.640;139.748;2023-08-01T10:05:26;101289.67;;;27.53;45.85
64115;BME280;62188;35.640;139.748;2023-08-01T10:07:52;101296.03;;;27.35;45.82
64115;BME280;62188;35.640;139.748;2023-08-01T10:10:16;101303.30;;;27.45;46.17
64115;BME280;62188;35.640;139.748;2023-08-01T10:12:44;101312.12;;;27.49;46.11
64115;BME280;62188;35.640;139.748;2023-08-01T10:15:07;101314.70;;;27.62;46.76
64115;BME280;62188;35.640;139.748;2023-08-01T10:17:31;101311.85;;;27.50;46.41
64115;BME280;62188;35.640;139.748;2023-08-01T10:19:57;101313.57;;;27.70;45.63
64115;BME280;62188;35.640;139.748;2023-08-01T10:22:22;101321.32;;;27.30;46.60
64115;BME280;62188;35.640;139.748;2023-08-01T10:24:48;101328.73;;;27.11;47.27
64115;BME280;62188;35.640;139.748;2023-08-01T10:27:14;101331.35;;;26.77;48.08
64115;BME280;62188;35.640;139.748;2023-08-01T10:29:38;101330.97;;;26.37;48.83
64115;BME280;62188;35.640;139.748;2023-08-01T10:32:03;101329.06;;;26.27;49.45
64115;BME280;62188;35.640;139.748;2023-08-01T10:34:29;101333.67;;;26.42;50.29
64115;BME280;62188;35.640;139.748;2023-08-01T10:36:55;101333.58;;;26.71;49.59
64115;BME280;62188;35.640;139.748;2023-08-01T10:39:23;101336.63;;;26.60;49.24
64115;BME280;62188;35.640;139.748;2023-08-01T10:41:44;101341.75;;;27.08;48.90
64115;BME280;62188;35.640;139.748;2023-08-01T10:44:11;101339.34;;;27.45;48.56
64115;BME280;62188;35.640;139.748;2023-08-01T10:46:46;101338.90;;;27.54;47.93
64115;BME280;62188;35.640;139.748;2023-08-01T10:49:00;101338.30;;;27.31;47.64
64115;BME280;62188;35.640;139.748;2023-08-01T10:51:35;101333.20;;;27.04;48.25
64115;BME280;62188;35.640;139.748;2023-08-01T10:53:52;101325.97;;;27.28;47.52
64115;BME280;62188;35.640;139.748;2023-08-01T10:56:18;101324.62;;;27.35;47.65
64115;BME280;62188;35.640;139.748;2023-08-01T10:58:41;101320.89;;;27.49;47.55
64115;BME280;62188;35.640;139.748;2023-08-01T11:01:07;101317.95;;;27.34;47.22
64115;BME280;62188;35.640;139.748;2023-08-01T11:03:36;101317.11;;;27.72;47.34
64115;BME280;62188;35.640;139.748;2023-08-01T11:05:59;101321.32;;;27.44;47.18
64115;BME280;62188;35.640;139.748;2023-08-01T11:08:33;101320.94;;;27.82;46.88
64115;BME280;62188;35.640;139.748;2023-08-01T11:10:51;101319.91;;;27.52;46.74
64115;BME280;62188;35.640;139.748;2023-08-01T11:13:14;101320.94;;;27.70;47.18
64115;BME280;62188;35.640;139.748;2023-08-01T11:15:39;101328.38;;;27.94;47.02
64115;BME280;62188;35.640;139.748;2023-08-01T11:18:05;101334.08;;;27.67;46.89
64115;BME280;62188;35.640;139.748;2023-08-01T11:20:30;101338.10;;;27.72;46.81
64115;BME280;62188;35.640;139.748;2023-08-01T11:22:56;101333.61;;;27.98;46.81
64115;BME280;62188;35.640;139.748;2023-08-01T11:25:21;101330.61;;;27.65;46.18
64115;BME280;62188;35.640;139.748;2023-08-01T11:27:46;101328.81;;;28.08;46.54
64115;BME280;62188;35.640;139.748;2023-08-01T11:30:11;101331.25;;;27.88;46.97
64115;BME280;62188;35.640;139.748;2023-08-01T11:32:37;101328.35;;;27.79;47.20
64115;BME280;62188;35.640;139.748;2023-08-01T11:35:02;101321.15;;;28.22;47.59
64115;BME280;62188;35.640;139.748;2023-08-01T11:37:28;101315.78;;;27.69;48.67
64115;BME280;62188;35.640;139.748;2023-08-01T11:39:53;101319.41;;;28.28;48.97
64115;BME280;62188;35.640;139.748;2023-08-01T11:42:18;101321.44;;;27.79;49.50
64115;BME280;62188;35.640;139.748;2023-08-01T11:44:44;101321.34;;;27.48;49.92
64115;BME280;62188;35.640;139.748;2023-08-01T11:47:13;101319.36;;;27.57;49.37
64115;BME280;62188;35.640;139.748;2023-08-01T11:49:34;101311.74;;;27.75;49.57
64115;BME280;62188;35.640;139.748;2023-08-01T11:52:00;101310.28;;;27.83;49.29
64115;BME280;62188;35.640;139.748;2023-08-01T11:54:25;101309.53;;;27.69;49.35
64115;BME280;62188;35.640;139.748;2023-08-01T11:56:49;101310.25;;;28.00;48.81
64115;BME280;62188;35.640;139.748;2023-08-01T11:59:16;101314.62;;;28.04;49.02
64115;BME280;62188;35.640;139.748;2023-08-01T12:01:41;101321.01;;;27.94;49.40
64115;BME280;62188;35.640;139.748;2023-08-01T12:04:05;101323.39;;;28.19;48.53
64115;BME280;62188;35.640;139.748;2023-08-01T12:06:33;101327.50;;;27.85;48.79
64115;BME280;62188;35.640;139.748;2023-08-01T12:11:23;101323.70;;;27.61;49.79
64115;BME280;62188;35.640;139.748;2023-08-01T12:13:47;101325.81;;;27.65;50.29
64115;BME280;62188;35.640;139.748;2023-08-01T12:16:12;101320.46;;;27.53;50.06
64115;BME280;62188;35.640;139.748;2023-08-01T12:18:40;101320.51;;;27.46;50.27
64115;BME280;62188;35.640;139.748;2023-08-01T12:21:03;101324.91;;;27.95;49.88